sensor_id;sensor_type;location;lat;lon;timestamp;temperature;humidity
10459;DHT22;5277;48.722;8.736;2022-08-18T00:02:06;19.10;99.90
10459;DHT22;5277;48.722;8.736;2022-08-18T00:04:33;19.10;99.90
10459;DHT22;5277;48.722;8.736;2022-08-18T00:07:08;19.10;99.90
10459;DHT22;5277;48.722;8.736;2022-08-18T00:09:36;19.10;99.90
10459;DHT22;5277;48.722;8.736;2022-08-18T00:12:07;19.10;99.90
10459;DHT22;5277;48.722;8.736;2022-08-18T00:14:33;19.10;99.90
10459;DHT22;5277;48.722;8.736;2022-08-18T00:16:59;19.10;99.90
10459;DHT22;5277;48.722;8.736;2022-08-18T00:19:25;19.10;99.90
10459;DHT22;5277;48.722;8.736;2022-08-18T00:21:51;19.10;99.90
10459;DHT22;5277;48.722;8.736;2022-08-18T00:24:16;19.10;99.90
10459;DHT22;5277;48.722;8.736;2022-08-18T00:26:42;19.00;99.90
10459;DHT22;5277;48.722;8.736;2022-08-18T00:29:08;19.00;99.90
10459;DHT22;5277;48.722;8.736;2022-08-18T00:31:34;19.00;99.90
10459;DHT22;5277;48.722;8.736;2022-08-18T00:34:00;19.10;99.90
10459;DHT22;5277;48.722;8.736;2022-08-18T00:36:26;19.10;99.90
10459;DHT22;5277;48.722;8.736;2022-08-18T00:38:52;19.10;99.90
10459;DHT22;5277;48.722;8.736;2022-08-18T00:41:19;19.10;99.90
10459;DHT22;5277;48.722;8.736;2022-08-18T00:43:49;19.10;99.90
10459;DHT22;5277;48.722;8.736;2022-08-18T00:46:27;19.10;99.90
10459;DHT22;5277;48.722;8.736;2022-08-18T00:48:54;19.10;99.90
10459;DHT22;5277;48.722;8.736;2022-08-18T00:51:34;19.10;99.90
10459;DHT22;5277;48.722;8.736;2022-08-18T00:54:09;19.10;99.90
10459;DHT22;5277;48.722;8.736;2022-08-18T00:56:45;19.00;99.90
10459;DHT22;5277;48.722;8.736;2022-08-18T01:02:01;18.90;99.90
10459;DHT22;5277;48.722;8.736;2022-08-18T01:04:32;19.00;99.90
10459;DHT22;5277;48.722;8.736;2022-08-18T01:07:26;19.00;99.90
10459;DHT22;5277;48.722;8.736;2022-08-18T01:09:50;19.00;99.90
10459;DHT22;5277;48.722;8.736;2022-08-18T01:12:17;19.00;99.90
10459;DHT22;5277;48.722;8.736;2022-08-18T01:14:44;18.90;99.90
10459;DHT22;5277;48.722;8.736;2022-08-18T01:17:12;19.00;99.90
10459;DHT22;5277;48.722;8.736;2022-08-18T01:19:57;19.00;99.90
10459;DHT22;5277;48.722;8.736;2022-08-18T01:25:15;18.90;99.90
10459;DHT22;5277;48.722;8.736;2022-08-18T01:28:01;18.90;99.90
10459;DHT22;5277;48.722;8.736;2022-08-18T01:30:29;18.90;99.90
10459;DHT22;5277;48.722;8.736;2022-08-18T01:32:55;18.90;99.90
10459;DHT22;5277;48.722;8.736;2022-08-18T01:35:23;18.90;99.90
10459;DHT22;5277;48.722;8.736;2022-08-18T01:37:53;18.80;99.90
10459;DHT22;5277;48.722;8.736;2022-08-18T01:40:21;18.90;99.90
10459;DHT22;5277;48.722;8.736;2022-08-18T01:42:47;18.90;99.90
10459;DHT22;5277;48.722;8.736;2022-08-18T01:45:15;18.90;99.90
10459;DHT22;5277;48.722;8.736;2022-08-18T01:47:42;18.90;99.90
10459;DHT22;5277;48.722;8.736;2022-08-18T01:50:09;18.90;99.90
10459;DHT22;5277;48.722;8.736;2022-08-18T01:52:36;18.90;99.90
10459;DHT22;5277;48.722;8.736;2022-08-18T01:55:03;18.90;99.90
10459;DHT22;5277;48.722;8.736;2022-08-18T01:57:29;18.90;99.90
10459;DHT22;5277;48.722;8.736;2022-08-18T01:59:55;18.90;99.90
10459;DHT22;5277;48.722;8.736;2022-08-18T02:02:24;18.90;99.90
10459;DHT22;5277;48.722;8.736;2022-08-18T02:04:55;18.90;99.90
10459;DHT22;5277;48.722;8.736;2022-08-18T02:07:21;18.90;99.90
10459;DHT22;5277;48.722;8.736;2022-08-18T02:09:47;18.90;99.90
10459;DHT22;5277;48.722;8.736;2022-08-18T02:12:13;18.90;99.90
10459;DHT22;5277;48.722;8.736;2022-08-18T02:14:39;18.90;99.90
10459;DHT22;5277;48.722;8.736;2022-08-18T02:17:07;18.90;99.90
10459;DHT22;5277;48.722;8.736;2022-08-18T02:19:35;18.90;99.90
10459;DHT22;5277;48.722;8.736;2022-08-18T02:22:02;18.80;99.90
10459;DHT22;5277;48.722;8.736;2022-08-18T02:24:28;18.80;99.90
10459;DHT22;5277;48.722;8.736;2022-08-18T02:26:54;18.80;99.90
10459;DHT22;5277;48.722;8.736;2022-08-18T02:29:19;18.90;99.90
10459;DHT22;5277;48.722;8.736;2022-08-18T02:31:45;18.90;99.90
10459;DHT22;5277;48.722;8.736;2022-08-18T02:34:11;18.90;99.90
10459;DHT22;5277;48.722;8.736;2022-08-18T02:36:36;18.80;99.90
10459;DHT22;5277;48.722;8.736;2022-08-18T02:39:02;18.80;99.90
10459;DHT22;5277;48.722;8.736;2022-08-18T02:41:28;18.80;99.90
10459;DHT22;5277;48.722;8.736;2022-08-18T02:43:54;18.80;99.90
10459;DHT22;5277;48.722;8.736;2022-08-18T02:46:19;18.80;99.90
10459;DHT22;5277;48.722;8.736;2022-08-18T02:48:45;18.80;99.90
10459;DHT22;5277;48.722;8.736;2022-08-18T02:51:15;18.70;99.90
10459;DHT22;5277;48.722;8.736;2022-08-18T02:53:43;18.80;99.90
10459;DHT22;5277;48.722;8.736;2022-08-18T02:56:22;18.80;99.90
10459;DHT22;5277;48.722;8.736;2022-08-18T02:59:00;18.80;99.90
10459;DHT22;5277;48.722;8.736;2022-08-18T03:01:29;18.80;99.90
10459;DHT22;5277;48.722;8.736;2022-08-18T03:03:57;18.80;99.90
10459;DHT22;5277;48.722;8.736;2022-08-18T03:06:23;18.80;99.90
10459;DHT22;5277;48.722;8.736;2022-08-18T03:08:50;18.80;99.90
10459;DHT22;5277;48.722;8.736;2022-08-18T03:11:18;18.70;99.90
10459;DHT22;5277;48.722;8.736;2022-08-18T03:13:45;18.70;99.90
10459;DHT22;5277;48.722;8.736;2022-08-18T03:16:11;18.70;99.90
10459;DHT22;5277;48.722;8.736;2022-08-18T03:18:37;18.70;99.90
10459;DHT22;5277;48.722;8.736;2022-08-18T03:21:07;18.70;99.90
10459;DHT22;5277;48.722;8.736;2022-08-18T03:23:34;18.70;99.90
10459;DHT22;5277;48.722;8.736;2022-08-18T03:26:00;18.70;99.90
10459;DHT22;5277;48.722;8.736;2022-08-18T03:28:26;18.60;99.90
10459;DHT22;5277;48.722;8.736;2022-08-18T03:30:53;18.70;99.90
10459;DHT22;5277;48.722;8.736;2022-08-18T03:33:20;18.70;99.90
10459;DHT22;5277;48.722;8.736;2022-08-18T03:35:46;18.80;99.90
10459;DHT22;5277;48.722;8.736;2022-08-18T03:38:11;18.80;99.90
10459;DHT22;5277;48.722;8.736;2022-08-18T03:40:37;18.80;99.90
10459;DHT22;5277;48.722;8.736;2022-08-18T03:43:04;18.80;99.90
10459;DHT22;5277;48.722;8.736;2022-08-18T03:45:33;18.80;99.90
10459;DHT22;5277;48.722;8.736;2022-08-18T03:48:00;18.80;99.90
10459;DHT22;5277;48.722;8.736;2022-08-18T03:50:27;18.70;99.90
10459;DHT22;5277;48.722;8.736;2022-08-18T03:52:54;18.70;99.90
10459;DHT22;5277;48.722;8.736;2022-08-18T03:55:20;18.80;99.90
10459;DHT22;5277;48.722;8.736;2022-08-18T03:57:46;18.80;99.90
10459;DHT22;5277;48.722;8.736;2022-08-18T04:00:12;18.80;99.90
10459;DHT22;5277;48.722;8.736;2022-08-18T04:02:39;18.80;99.90
10459;DHT22;5277;48.722;8.736;2022-08-18T04:05:05;18.80;99.90
10459;DHT22;5277;48.722;8.736;2022-08-18T04:07:31;18.80;99.90
10459;DHT22;5277;48.722;8.736;2022-08-18T04:09:57;18.80;99.90
10459;DHT22;5277;48.722;8.736;2022-08-18T04:12:23;18.80;99.90
10459;DHT22;5277;48.722;8.736;2022-08-18T04:14:49;18.80;99.90
10459;DHT22;5277;48.722;8.736;2022-08-18T04:17:18;18.80;99.90
10459;DHT22;5277;48.722;8.736;2022-08-18T04:19:49;18.80;99.90
10459;DHT22;5277;48.722;8.736;2022-08-18T04:22:15;18.80;99.90
10459;DHT22;5277;48.722;8.736;2022-08-18T04:24:41;18.80;99.90
10459;DHT22;5277;48.722;8.736;2022-08-18T04:27:08;18.80;99.90
10459;DHT22;5277;48.722;8.736;2022-08-18T04:29:33;18.80;99.90
10459;DHT22;5277;48.722;8.736;2022-08-18T04:32:01;18.80;99.90
10459;DHT22;5277;48.722;8.736;2022-08-18T04:35:08;18.80;99.90
10459;DHT22;5277;48.722;8.736;2022-08-18T04:37:37;18.80;99.90
10459;DHT22;5277;48.722;8.736;2022-08-18T04:40:04;18.80;99.90
10459;DHT22;5277;48.722;8.736;2022-08-18T04:42:30;18.80;99.90
10459;DHT22;5277;48.722;8.736;2022-08-18T04:44:55;18.70;99.90
10459;DHT22;5277;48.722;8.736;2022-08-18T04:47:22;18.70;99.90
10459;DHT22;5277;48.722;8.736;2022-08-18T04:49:48;18.70;99.90
10459;DHT22;5277;48.722;8.736;2022-08-18T04:52:15;18.70;99.90
10459;DHT22;5277;48.722;8.736;2022-08-18T04:55:00;18.70;99.90
10459;DHT22;5277;48.722;8.736;2022-08-18T04:57:26;18.70;99.90
10459;DHT22;5277;48.722;8.736;2022-08-18T04:59:53;18.70;99.90
10459;DHT22;5277;48.722;8.736;2022-08-18T05:02:20;18.80;99.90
10459;DHT22;5277;48.722;8.736;2022-08-18T05:04:46;18.70;99.90
10459;DHT22;5277;48.722;8.736;2022-08-18T05:07:14;18.70;99.90
10459;DHT22;5277;48.722;8.736;2022-08-18T05:09:41;18.80;99.90
10459;DHT22;5277;48.722;8.736;2022-08-18T05:12:08;18.80;99.90
10459;DHT22;5277;48.722;8.736;2022-08-18T05:14:35;18.80;99.90
10459;DHT22;5277;48.722;8.736;2022-08-18T05:17:02;18.80;99.90
10459;DHT22;5277;48.722;8.736;2022-08-18T05:19:28;18.80;99.90
10459;DHT22;5277;48.722;8.736;2022-08-18T05:21:58;18.80;99.90
10459;DHT22;5277;48.722;8.736;2022-08-18T05:24:25;18.80;99.90
10459;DHT22;5277;48.722;8.736;2022-08-18T05:26:52;18.80;99.90
10459;DHT22;5277;48.722;8.736;2022-08-18T05:29:21;18.90;99.90
10459;DHT22;5277;48.722;8.736;2022-08-18T05:31:48;18.90;99.90
10459;DHT22;5277;48.722;8.736;2022-08-18T05:34:15;19.00;99.90
10459;DHT22;5277;48.722;8.736;2022-08-18T05:41:49;19.20;99.90
10459;DHT22;5277;48.722;8.736;2022-08-18T05:44:24;19.30;99.90
10459;DHT22;5277;48.722;8.736;2022-08-18T05:46:53;19.30;99.90
10459;DHT22;5277;48.722;8.736;2022-08-18T05:49:20;19.40;99.90
10459;DHT22;5277;48.722;8.736;2022-08-18T05:51:50;19.30;99.90
10459;DHT22;5277;48.722;8.736;2022-08-18T05:54:18;19.40;99.90
10459;DHT22;5277;48.722;8.736;2022-08-18T05:57:13;19.30;99.90
10459;DHT22;5277;48.722;8.736;2022-08-18T05:59:46;19.30;99.90
10459;DHT22;5277;48.722;8.736;2022-08-18T06:02:23;19.30;99.90
10459;DHT22;5277;48.722;8.736;2022-08-18T06:04:54;19.40;99.90
10459;DHT22;5277;48.722;8.736;2022-08-18T06:07:47;19.50;99.90
10459;DHT22;5277;48.722;8.736;2022-08-18T06:10:16;19.50;99.90
10459;DHT22;5277;48.722;8.736;2022-08-18T06:12:55;19.50;99.90
10459;DHT22;5277;48.722;8.736;2022-08-18T06:16:17;19.60;99.90
10459;DHT22;5277;48.722;8.736;2022-08-18T06:19:00;19.70;99.90
10459;DHT22;5277;48.722;8.736;2022-08-18T06:24:20;19.80;99.90
10459;DHT22;5277;48.722;8.736;2022-08-18T06:29:56;19.90;99.90
10459;DHT22;5277;48.722;8.736;2022-08-18T06:32:45;20.00;99.90
10459;DHT22;5277;48.722;8.736;2022-08-18T06:35:37;20.10;99.90
10459;DHT22;5277;48.722;8.736;2022-08-18T06:41:13;20.30;99.90
10459;DHT22;5277;48.722;8.736;2022-08-18T06:44:03;20.30;99.90
10459;DHT22;5277;48.722;8.736;2022-08-18T06:52:29;20.50;99.90
10459;DHT22;5277;48.722;8.736;2022-08-18T06:57:34;20.50;99.90
10459;DHT22;5277;48.722;8.736;2022-08-18T07:02:56;20.60;99.90
10459;DHT22;5277;48.722;8.736;2022-08-18T07:05:31;20.60;99.90
10459;DHT22;5277;48.722;8.736;2022-08-18T07:10:45;20.70;99.90
10459;DHT22;5277;48.722;8.736;2022-08-18T07:13:21;20.70;99.90
10459;DHT22;5277;48.722;8.736;2022-08-18T07:15:48;20.70;99.90
10459;DHT22;5277;48.722;8.736;2022-08-18T07:18:21;20.70;99.90
10459;DHT22;5277;48.722;8.736;2022-08-18T07:20:59;20.70;99.90
10459;DHT22;5277;48.722;8.736;2022-08-18T07:23:35;20.60;99.90
10459;DHT22;5277;48.722;8.736;2022-08-18T07:26:15;20.60;99.90
10459;DHT22;5277;48.722;8.736;2022-08-18T07:28:47;20.60;99.90
10459;DHT22;5277;48.722;8.736;2022-08-18T07:31:36;20.50;99.90
10459;DHT22;5277;48.722;8.736;2022-08-18T07:39:55;20.40;99.90
10459;DHT22;5277;48.722;8.736;2022-08-18T07:50:07;20.30;99.90
10459;DHT22;5277;48.722;8.736;2022-08-18T07:52:47;20.30;99.90
10459;DHT22;5277;48.722;8.736;2022-08-18T07:55:25;20.30;99.90
10459;DHT22;5277;48.722;8.736;2022-08-18T07:57:57;20.20;99.90
10459;DHT22;5277;48.722;8.736;2022-08-18T08:08:48;20.40;99.90
10459;DHT22;5277;48.722;8.736;2022-08-18T08:12:01;20.50;99.90
10459;DHT22;5277;48.722;8.736;2022-08-18T08:14:41;20.60;99.90
10459;DHT22;5277;48.722;8.736;2022-08-18T08:20:10;20.90;99.90
10459;DHT22;5277;48.722;8.736;2022-08-18T08:23:00;21.00;99.90
10459;DHT22;5277;48.722;8.736;2022-08-18T08:29:09;21.20;99.90
10459;DHT22;5277;48.722;8.736;2022-08-18T08:34:02;21.40;99.90
10459;DHT22;5277;48.722;8.736;2022-08-18T08:36:37;21.40;99.90
10459;DHT22;5277;48.722;8.736;2022-08-18T08:39:09;21.40;99.90
10459;DHT22;5277;48.722;8.736;2022-08-18T08:41:53;21.50;99.90
10459;DHT22;5277;48.722;8.736;2022-08-18T08:44:29;21.60;99.90
10459;DHT22;5277;48.722;8.736;2022-08-18T08:47:14;21.60;99.90
10459;DHT22;5277;48.722;8.736;2022-08-18T08:49:46;21.70;99.90
10459;DHT22;5277;48.722;8.736;2022-08-18T08:52:29;21.80;99.90
10459;DHT22;5277;48.722;8.736;2022-08-18T08:55:13;21.80;99.90
10459;DHT22;5277;48.722;8.736;2022-08-18T08:57:46;21.90;99.90
10459;DHT22;5277;48.722;8.736;2022-08-18T09:00:14;21.90;99.90
10459;DHT22;5277;48.722;8.736;2022-08-18T09:05:39;22.10;99.90
10459;DHT22;5277;48.722;8.736;2022-08-18T09:11:21;22.60;99.90
10459;DHT22;5277;48.722;8.736;2022-08-18T09:14:11;22.90;99.90
10459;DHT22;5277;48.722;8.736;2022-08-18T09:19:54;23.60;99.90
10459;DHT22;5277;48.722;8.736;2022-08-18T09:22:46;23.80;99.90
10459;DHT22;5277;48.722;8.736;2022-08-18T09:28:14;24.30;99.90
10459;DHT22;5277;48.722;8.736;2022-08-18T09:31:13;24.50;99.90
10459;DHT22;5277;48.722;8.736;2022-08-18T09:39:00;24.60;99.80
10459;DHT22;5277;48.722;8.736;2022-08-18T09:41:52;24.70;99.10
10459;DHT22;5277;48.722;8.736;2022-08-18T09:50:30;25.40;98.40
10459;DHT22;5277;48.722;8.736;2022-08-18T09:57:44;25.70;97.30
10459;DHT22;5277;48.722;8.736;2022-08-18T10:00:17;25.70;97.10
10459;DHT22;5277;48.722;8.736;2022-08-18T10:07:42;25.70;96.60
10459;DHT22;5277;48.722;8.736;2022-08-18T10:21:23;25.30;97.10
10459;DHT22;5277;48.722;8.736;2022-08-18T10:34:43;25.30;97.10
10459;DHT22;5277;48.722;8.736;2022-08-18T10:43:00;25.30;96.50
10459;DHT22;5277;48.722;8.736;2022-08-18T10:45:44;25.10;96.40
10459;DHT22;5277;48.722;8.736;2022-08-18T10:48:22;25.00;96.20
10459;DHT22;5277;48.722;8.736;2022-08-18T10:51:10;24.90;96.20
10459;DHT22;5277;48.722;8.736;2022-08-18T10:53:54;24.80;96.40
10459;DHT22;5277;48.722;8.736;2022-08-18T10:56:45;24.70;96.40
10459;DHT22;5277;48.722;8.736;2022-08-18T11:02:34;24.50;96.50
10459;DHT22;5277;48.722;8.736;2022-08-18T11:05:06;24.40;96.80
10459;DHT22;5277;48.722;8.736;2022-08-18T11:07:33;24.40;96.80
10459;DHT22;5277;48.722;8.736;2022-08-18T11:10:00;24.80;97.00
10459;DHT22;5277;48.722;8.736;2022-08-18T11:18:47;27.00;92.60
10459;DHT22;5277;48.722;8.736;2022-08-18T11:21:40;27.00;91.60
10459;DHT22;5277;48.722;8.736;2022-08-18T11:24:18;26.70;91.80
10459;DHT22;5277;48.722;8.736;2022-08-18T11:29:29;26.60;91.80
10459;DHT22;5277;48.722;8.736;2022-08-18T11:37:03;26.40;91.90
10459;DHT22;5277;48.722;8.736;2022-08-18T11:39:30;26.70;91.90
10459;DHT22;5277;48.722;8.736;2022-08-18T11:41:56;27.20;91.30
10459;DHT22;5277;48.722;8.736;2022-08-18T11:44:28;27.60;90.90
10459;DHT22;5277;48.722;8.736;2022-08-18T11:47:08;27.90;90.00
10459;DHT22;5277;48.722;8.736;2022-08-18T11:49:35;27.80;89.10
10459;DHT22;5277;48.722;8.736;2022-08-18T11:52:16;27.90;89.60
10459;DHT22;5277;48.722;8.736;2022-08-18T11:54:46;28.10;90.00
10459;DHT22;5277;48.722;8.736;2022-08-18T11:57:50;28.30;87.70
10459;DHT22;5277;48.722;8.736;2022-08-18T12:03:35;28.50;85.60
10459;DHT22;5277;48.722;8.736;2022-08-18T12:06:20;28.60;86.00
10459;DHT22;5277;48.722;8.736;2022-08-18T12:08:57;28.60;84.30
10459;DHT22;5277;48.722;8.736;2022-08-18T12:11:27;28.40;84.00
10459;DHT22;5277;48.722;8.736;2022-08-18T12:14:00;28.10;84.70
10459;DHT22;5277;48.722;8.736;2022-08-18T12:16:40;27.90;87.00
10459;DHT22;5277;48.722;8.736;2022-08-18T12:19:09;27.60;87.30
10459;DHT22;5277;48.722;8.736;2022-08-18T12:24:05;27.10;88.10
10459;DHT22;5277;48.722;8.736;2022-08-18T12:26:30;26.90;89.20
10459;DHT22;5277;48.722;8.736;2022-08-18T12:28:56;26.70;90.30
10459;DHT22;5277;48.722;8.736;2022-08-18T12:31:22;26.50;90.40
10459;DHT22;5277;48.722;8.736;2022-08-18T12:33:48;26.40;90.60
10459;DHT22;5277;48.722;8.736;2022-08-18T12:36:13;26.20;90.70
10459;DHT22;5277;48.722;8.736;2022-08-18T12:38:41;26.20;91.20
10459;DHT22;5277;48.722;8.736;2022-08-18T12:41:08;26.20;91.10
10459;DHT22;5277;48.722;8.736;2022-08-18T12:43:37;26.20;91.40
10459;DHT22;5277;48.722;8.736;2022-08-18T12:46:04;26.20;90.80
10459;DHT22;5277;48.722;8.736;2022-08-18T12:48:30;26.10;90.80
10459;DHT22;5277;48.722;8.736;2022-08-18T12:50:56;26.20;91.00
10459;DHT22;5277;48.722;8.736;2022-08-18T12:53:23;26.20;91.20
10459;DHT22;5277;48.722;8.736;2022-08-18T12:55:53;26.30;90.70
10459;DHT22;5277;48.722;8.736;2022-08-18T12:58:19;26.30;90.40
10459;DHT22;5277;48.722;8.736;2022-08-18T13:00:44;26.40;90.00
10459;DHT22;5277;48.722;8.736;2022-08-18T13:03:11;26.50;90.10
10459;DHT22;5277;48.722;8.736;2022-08-18T13:05:37;26.50;89.80
10459;DHT22;5277;48.722;8.736;2022-08-18T13:08:04;26.40;89.50
10459;DHT22;5277;48.722;8.736;2022-08-18T13:10:31;26.40;90.20
10459;DHT22;5277;48.722;8.736;2022-08-18T13:12:57;26.30;90.40
10459;DHT22;5277;48.722;8.736;2022-08-18T13:15:23;26.20;90.60
10459;DHT22;5277;48.722;8.736;2022-08-18T13:17:49;26.20;90.80
10459;DHT22;5277;48.722;8.736;2022-08-18T13:20:15;26.20;90.50
10459;DHT22;5277;48.722;8.736;2022-08-18T13:22:41;26.20;90.30
10459;DHT22;5277;48.722;8.736;2022-08-18T13:25:11;26.20;90.40
10459;DHT22;5277;48.722;8.736;2022-08-18T13:27:37;26.20;90.10
10459;DHT22;5277;48.722;8.736;2022-08-18T13:30:08;26.20;90.00
10459;DHT22;5277;48.722;8.736;2022-08-18T13:32:34;26.20;89.60
10459;DHT22;5277;48.722;8.736;2022-08-18T13:35:01;26.20;90.30
10459;DHT22;5277;48.722;8.736;2022-08-18T13:37:26;26.20;90.00
10459;DHT22;5277;48.722;8.736;2022-08-18T13:39:57;26.30;89.80
10459;DHT22;5277;48.722;8.736;2022-08-18T13:42:23;26.20;89.30
10459;DHT22;5277;48.722;8.736;2022-08-18T13:44:49;26.20;89.10
10459;DHT22;5277;48.722;8.736;2022-08-18T13:47:14;26.20;89.70
10459;DHT22;5277;48.722;8.736;2022-08-18T13:49:40;26.20;90.10
10459;DHT22;5277;48.722;8.736;2022-08-18T13:52:06;26.20;89.20
10459;DHT22;5277;48.722;8.736;2022-08-18T13:54:35;26.20;90.50
10459;DHT22;5277;48.722;8.736;2022-08-18T13:57:01;26.20;91.20
10459;DHT22;5277;48.722;8.736;2022-08-18T13:59:27;26.20;90.10
10459;DHT22;5277;48.722;8.736;2022-08-18T14:01:59;26.20;90.00
10459;DHT22;5277;48.722;8.736;2022-08-18T14:04:25;26.10;89.10
10459;DHT22;5277;48.722;8.736;2022-08-18T14:06:52;26.10;90.10
10459;DHT22;5277;48.722;8.736;2022-08-18T14:09:19;26.10;90.00
10459;DHT22;5277;48.722;8.736;2022-08-18T14:11:45;26.10;90.70
10459;DHT22;5277;48.722;8.736;2022-08-18T14:14:12;26.10;90.20
10459;DHT22;5277;48.722;8.736;2022-08-18T14:16:38;26.20;90.80
10459;DHT22;5277;48.722;8.736;2022-08-18T14:19:04;26.20;91.10
10459;DHT22;5277;48.722;8.736;2022-08-18T14:21:51;26.20;91.20
10459;DHT22;5277;48.722;8.736;2022-08-18T14:24:37;26.20;91.20
10459;DHT22;5277;48.722;8.736;2022-08-18T14:27:30;26.20;89.60
10459;DHT22;5277;48.722;8.736;2022-08-18T14:29:57;26.10;90.00
10459;DHT22;5277;48.722;8.736;2022-08-18T14:32:24;26.10;90.20
10459;DHT22;5277;48.722;8.736;2022-08-18T14:34:58;26.10;90.90
10459;DHT22;5277;48.722;8.736;2022-08-18T14:37:26;26.10;90.80
10459;DHT22;5277;48.722;8.736;2022-08-18T14:39:52;26.10;90.60
10459;DHT22;5277;48.722;8.736;2022-08-18T14:42:18;26.20;90.70
10459;DHT22;5277;48.722;8.736;2022-08-18T14:44:46;26.20;90.60
10459;DHT22;5277;48.722;8.736;2022-08-18T14:47:12;26.20;89.80
10459;DHT22;5277;48.722;8.736;2022-08-18T14:49:38;26.10;90.60
10459;DHT22;5277;48.722;8.736;2022-08-18T14:52:05;26.20;90.30
10459;DHT22;5277;48.722;8.736;2022-08-18T14:54:32;26.20;90.30
10459;DHT22;5277;48.722;8.736;2022-08-18T14:56:59;26.20;90.00
10459;DHT22;5277;48.722;8.736;2022-08-18T14:59:27;26.20;89.30
10459;DHT22;5277;48.722;8.736;2022-08-18T15:01:53;26.20;89.30
10459;DHT22;5277;48.722;8.736;2022-08-18T15:04:20;26.20;90.10
10459;DHT22;5277;48.722;8.736;2022-08-18T15:06:47;26.20;90.10
10459;DHT22;5277;48.722;8.736;2022-08-18T15:09:13;26.20;90.50
10459;DHT22;5277;48.722;8.736;2022-08-18T15:11:38;26.20;90.70
10459;DHT22;5277;48.722;8.736;2022-08-18T15:14:04;26.20;90.00
10459;DHT22;5277;48.722;8.736;2022-08-18T15:16:30;26.00;89.80
10459;DHT22;5277;48.722;8.736;2022-08-18T15:18:59;26.00;88.90
10459;DHT22;5277;48.722;8.736;2022-08-18T15:21:25;25.90;90.70
10459;DHT22;5277;48.722;8.736;2022-08-18T15:24:27;25.90;90.70
10459;DHT22;5277;48.722;8.736;2022-08-18T15:27:11;25.90;90.00
10459;DHT22;5277;48.722;8.736;2022-08-18T15:29:37;25.80;89.90
10459;DHT22;5277;48.722;8.736;2022-08-18T15:32:03;25.80;91.50
10459;DHT22;5277;48.722;8.736;2022-08-18T15:34:29;25.80;91.90
10459;DHT22;5277;48.722;8.736;2022-08-18T15:36:55;25.80;90.60
10459;DHT22;5277;48.722;8.736;2022-08-18T15:39:22;25.80;90.10
10459;DHT22;5277;48.722;8.736;2022-08-18T15:41:47;25.80;90.00
10459;DHT22;5277;48.722;8.736;2022-08-18T15:44:17;25.80;90.80
10459;DHT22;5277;48.722;8.736;2022-08-18T15:46:43;25.80;91.60
10459;DHT22;5277;48.722;8.736;2022-08-18T15:49:09;25.70;92.50
10459;DHT22;5277;48.722;8.736;2022-08-18T15:51:37;25.70;92.90
10459;DHT22;5277;48.722;8.736;2022-08-18T15:54:05;25.70;93.20
10459;DHT22;5277;48.722;8.736;2022-08-18T15:56:31;25.60;93.40
10459;DHT22;5277;48.722;8.736;2022-08-18T15:58:58;25.60;93.90
10459;DHT22;5277;48.722;8.736;2022-08-18T16:01:28;25.50;93.30
10459;DHT22;5277;48.722;8.736;2022-08-18T16:03:54;25.30;93.90
10459;DHT22;5277;48.722;8.736;2022-08-18T16:06:22;25.20;94.10
10459;DHT22;5277;48.722;8.736;2022-08-18T16:08:52;25.20;93.90
10459;DHT22;5277;48.722;8.736;2022-08-18T16:11:19;25.20;94.70
10459;DHT22;5277;48.722;8.736;2022-08-18T16:13:46;25.10;94.60
10459;DHT22;5277;48.722;8.736;2022-08-18T16:16:16;25.10;94.80
10459;DHT22;5277;48.722;8.736;2022-08-18T16:18:42;25.00;95.10
10459;DHT22;5277;48.722;8.736;2022-08-18T16:21:13;25.00;95.10
10459;DHT22;5277;48.722;8.736;2022-08-18T16:23:41;24.90;95.50
10459;DHT22;5277;48.722;8.736;2022-08-18T16:26:09;24.80;94.90
10459;DHT22;5277;48.722;8.736;2022-08-18T16:28:37;24.80;94.50
10459;DHT22;5277;48.722;8.736;2022-08-18T16:31:03;24.70;95.50
10459;DHT22;5277;48.722;8.736;2022-08-18T16:33:30;24.60;94.60
10459;DHT22;5277;48.722;8.736;2022-08-18T16:36:04;24.60;95.00
10459;DHT22;5277;48.722;8.736;2022-08-18T16:38:31;24.50;93.80
10459;DHT22;5277;48.722;8.736;2022-08-18T16:41:02;24.60;94.70
10459;DHT22;5277;48.722;8.736;2022-08-18T16:43:31;24.50;95.40
10459;DHT22;5277;48.722;8.736;2022-08-18T16:45:57;24.50;94.50
10459;DHT22;5277;48.722;8.736;2022-08-18T16:48:22;24.50;96.00
10459;DHT22;5277;48.722;8.736;2022-08-18T16:50:48;24.40;95.90
10459;DHT22;5277;48.722;8.736;2022-08-18T16:53:16;24.30;96.10
10459;DHT22;5277;48.722;8.736;2022-08-18T16:55:43;24.20;97.00
10459;DHT22;5277;48.722;8.736;2022-08-18T16:58:08;24.20;96.80
10459;DHT22;5277;48.722;8.736;2022-08-18T17:00:54;24.20;96.80
10459;DHT22;5277;48.722;8.736;2022-08-18T17:03:40;24.10;96.70
10459;DHT22;5277;48.722;8.736;2022-08-18T17:06:24;24.00;96.70
10459;DHT22;5277;48.722;8.736;2022-08-18T17:08:56;24.00;96.80
10459;DHT22;5277;48.722;8.736;2022-08-18T17:11:23;24.00;97.20
10459;DHT22;5277;48.722;8.736;2022-08-18T17:13:52;23.90;97.10
10459;DHT22;5277;48.722;8.736;2022-08-18T17:16:19;23.90;97.10
10459;DHT22;5277;48.722;8.736;2022-08-18T17:18:45;23.80;97.70
10459;DHT22;5277;48.722;8.736;2022-08-18T17:21:16;23.80;98.20
10459;DHT22;5277;48.722;8.736;2022-08-18T17:23:43;23.70;98.20
10459;DHT22;5277;48.722;8.736;2022-08-18T17:26:29;23.70;98.30
10459;DHT22;5277;48.722;8.736;2022-08-18T17:31:31;23.70;98.40
10459;DHT22;5277;48.722;8.736;2022-08-18T17:34:05;23.60;98.30
10459;DHT22;5277;48.722;8.736;2022-08-18T17:36:37;23.60;98.60
10459;DHT22;5277;48.722;8.736;2022-08-18T17:39:05;23.60;98.10
10459;DHT22;5277;48.722;8.736;2022-08-18T17:41:33;23.60;98.90
10459;DHT22;5277;48.722;8.736;2022-08-18T17:44:19;23.50;99.00
10459;DHT22;5277;48.722;8.736;2022-08-18T17:46:45;23.40;98.90
10459;DHT22;5277;48.722;8.736;2022-08-18T17:49:23;23.40;98.60
10459;DHT22;5277;48.722;8.736;2022-08-18T17:52:11;23.40;98.10
10459;DHT22;5277;48.722;8.736;2022-08-18T17:54:41;23.40;98.80
10459;DHT22;5277;48.722;8.736;2022-08-18T17:57:28;23.40;99.30
10459;DHT22;5277;48.722;8.736;2022-08-18T18:00:05;23.40;98.70
10459;DHT22;5277;48.722;8.736;2022-08-18T18:02:34;23.30;99.30
10459;DHT22;5277;48.722;8.736;2022-08-18T18:05:05;23.20;99.60
10459;DHT22;5277;48.722;8.736;2022-08-18T18:07:35;23.20;99.50
10459;DHT22;5277;48.722;8.736;2022-08-18T18:15:47;23.10;99.30
10459;DHT22;5277;48.722;8.736;2022-08-18T18:18:40;23.10;99.70
10459;DHT22;5277;48.722;8.736;2022-08-18T18:21:19;23.00;99.90
10459;DHT22;5277;48.722;8.736;2022-08-18T18:23:52;23.00;99.90
10459;DHT22;5277;48.722;8.736;2022-08-18T18:31:36;22.80;99.90
10459;DHT22;5277;48.722;8.736;2022-08-18T18:34:05;22.70;99.90
10459;DHT22;5277;48.722;8.736;2022-08-18T18:41:41;22.60;99.90
10459;DHT22;5277;48.722;8.736;2022-08-18T18:44:09;22.50;99.90
10459;DHT22;5277;48.722;8.736;2022-08-18T18:49:46;22.50;99.90
10459;DHT22;5277;48.722;8.736;2022-08-18T18:55:06;22.30;99.90
10459;DHT22;5277;48.722;8.736;2022-08-18T18:57:44;22.40;99.90
10459;DHT22;5277;48.722;8.736;2022-08-18T19:00:18;22.30;99.90
10459;DHT22;5277;48.722;8.736;2022-08-18T19:05:54;22.20;99.90